createdAt,value
2019-03-02T00:00:02.088Z,98669.27
2019-03-02T00:02:12.349Z,98668.48
2019-03-02T00:04:23.200Z,98672.48
2019-03-02T00:06:35.716Z,98671.19
2019-03-02T00:08:46.726Z,98671.56
2019-03-02T00:10:57.506Z,98669.05
2019-03-02T00:13:08.733Z,98664.80
2019-03-02T00:15:21.043Z,98676.36
2019-03-02T00:17:31.846Z,98675.86
2019-03-02T00:19:42.685Z,98680.49
2019-03-02T00:21:53.441Z,98674.56
2019-03-02T00:24:04.252Z,98672.02
2019-03-02T00:26:35.320Z,98669.17
2019-03-02T00:28:46.150Z,98673.13
2019-03-02T00:30:57.884Z,98673.52
2019-03-02T00:33:11.458Z,98676.09
2019-03-02T00:35:22.481Z,98674.42
2019-03-02T00:37:33.768Z,98672.02
2019-03-02T00:39:46.029Z,98675.02
2019-03-02T00:41:56.907Z,98675.19
2019-03-02T00:44:51.234Z,98679.59
2019-03-02T00:47:02.172Z,98674.42
2019-03-02T00:49:13.010Z,98673.97
2019-03-02T00:51:23.812Z,98679.72
2019-03-02T00:53:35.582Z,98680.17
2019-03-02T00:55:47.322Z,98676.09
2019-03-02T00:57:58.117Z,98677.39
2019-03-02T01:00:28.804Z,98675.72
2019-03-02T01:02:40.446Z,98677.39
2019-03-02T01:04:52.556Z,98673.13
2019-03-02T01:09:35.694Z,98684.81
2019-03-02T01:11:46.513Z,98671.84
2019-03-02T01:13:57.652Z,98671.88
2019-03-02T01:16:10.041Z,98676.34
2019-03-02T01:18:21.266Z,98671.58
2019-03-02T01:20:33.588Z,98670.02
2019-03-02T01:22:44.406Z,98670.92
2019-03-02T01:24:55.212Z,98664.27
2019-03-02T01:27:06.051Z,98662.67
2019-03-02T01:29:19.117Z,98661.55
2019-03-02T01:31:29.655Z,98659.03
2019-03-02T01:33:40.454Z,98651.20
2019-03-02T01:35:53.931Z,98656.78
2019-03-02T01:38:04.019Z,98652.04
2019-03-02T01:40:14.949Z,98645.66
2019-03-02T01:42:29.395Z,98652.11
2019-03-02T01:44:38.570Z,98651.99
2019-03-02T01:46:49.403Z,98659.99
2019-03-02T01:49:01.548Z,98645.97
2019-03-02T01:51:12.922Z,98654.23
2019-03-02T01:53:23.880Z,98655.78
2019-03-02T01:55:34.668Z,98646.30
2019-03-02T01:57:48.857Z,98647.98
2019-03-02T01:59:58.180Z,98643.72
2019-03-02T02:02:09.084Z,98642.55
2019-03-02T02:04:22.735Z,98642.09
2019-03-02T02:06:32.609Z,98650.80
2019-03-02T02:08:43.421Z,98653.02
2019-03-02T02:10:54.209Z,98654.23
2019-03-02T02:13:06.306Z,98656.81
2019-03-02T02:15:37.787Z,98654.11
2019-03-02T02:17:49.565Z,98655.59
2019-03-02T02:20:01.538Z,98660.43
2019-03-02T02:22:12.352Z,98652.61
2019-03-02T02:24:24.825Z,98652.20
2019-03-02T02:26:35.982Z,98651.63
2019-03-02T02:28:46.784Z,98654.59
2019-03-02T02:31:01.624Z,98651.09
2019-03-02T02:33:10.328Z,98653.19
2019-03-02T02:35:21.134Z,98647.48
2019-03-02T02:37:36.559Z,98645.69
2019-03-02T02:39:44.776Z,98647.10
2019-03-02T02:41:59.950Z,98644.14
2019-03-02T02:44:08.269Z,98640.91
2019-03-02T02:46:19.056Z,98630.19
2019-03-02T02:48:31.227Z,98624.64
2019-03-02T02:50:43.090Z,98622.44
2019-03-02T02:52:55.280Z,98626.31
2019-03-02T02:55:47.749Z,98629.09
2019-03-02T02:57:58.559Z,98623.25
2019-03-02T03:00:55.044Z,98625.50
2019-03-02T03:03:03.756Z,98631.58
2019-03-02T03:05:56.221Z,98630.66
2019-03-02T03:08:07.024Z,98619.91
2019-03-02T03:13:01.853Z,98627.31
2019-03-02T03:15:09.881Z,98623.94
2019-03-02T03:17:20.778Z,98618.31
2019-03-02T03:19:32.416Z,98617.10
2019-03-02T03:21:44.365Z,98600.19
2019-03-02T03:24:02.974Z,98599.95
2019-03-02T03:26:07.994Z,98600.57
2019-03-02T03:28:18.812Z,98610.07
2019-03-02T03:30:35.680Z,98612.73
2019-03-02T03:32:54.614Z,98615.73
2019-03-02T03:34:55.039Z,98604.64
2019-03-02T03:37:08.311Z,98612.44
2019-03-02T03:39:18.535Z,98616.84
2019-03-02T03:41:29.374Z,98612.94
2019-03-02T03:43:42.865Z,98612.56
2019-03-02T03:45:52.950Z,98612.86
2019-03-02T03:48:03.742Z,98614.46
2019-03-02T03:50:15.842Z,98613.44
2019-03-02T03:52:27.352Z,98619.63
2019-03-02T03:54:40.978Z,98623.50
2019-03-02T03:57:32.508Z,98623.66
2019-03-02T03:59:43.421Z,98617.72
2019-03-02T04:01:56.849Z,98616.81
2019-03-02T04:04:06.933Z,98615.14
2019-03-02T04:06:17.835Z,98619.39
2019-03-02T04:08:29.862Z,98618.22
2019-03-02T04:10:41.384Z,98623.00
2019-03-02T04:12:52.190Z,98628.17
2019-03-02T04:15:44.662Z,98621.19
2019-03-02T04:17:55.483Z,98621.14
2019-03-02T04:20:49.642Z,98622.47
2019-03-02T04:23:42.314Z,98625.92
2019-03-02T04:25:56.672Z,98621.71
2019-03-02T04:28:05.832Z,98621.59
2019-03-02T04:30:16.622Z,98623.77
2019-03-02T04:32:28.852Z,98625.20
2019-03-02T04:34:40.179Z,98622.09
2019-03-02T04:36:50.966Z,98624.41
2019-03-02T04:39:01.882Z,98620.80
2019-03-02T04:41:12.690Z,98618.94
2019-03-02T04:43:23.517Z,98621.48
2019-03-02T04:45:36.462Z,98620.95
2019-03-02T04:47:47.026Z,98622.58
2019-03-02T04:49:57.844Z,98620.91
2019-03-02T04:52:11.574Z,98623.53
2019-03-02T04:54:21.388Z,98624.45
2019-03-02T04:56:32.176Z,98626.57
2019-03-02T04:58:43.629Z,98628.20
2019-03-02T05:00:55.719Z,98628.66
2019-03-02T05:03:06.519Z,98631.63
2019-03-02T05:05:17.345Z,98626.00
2019-03-02T05:07:30.160Z,98634.97
2019-03-02T05:09:40.873Z,98632.84
2019-03-02T05:11:51.701Z,98630.59
2019-03-02T05:14:04.288Z,98632.72
2019-03-02T05:16:15.294Z,98622.46
2019-03-02T05:18:26.117Z,98620.83
2019-03-02T05:20:37.805Z,98615.66
2019-03-02T05:22:50.722Z,98622.46
2019-03-02T05:25:43.994Z,98618.75
2019-03-02T05:27:54.794Z,98619.66
2019-03-02T05:30:26.860Z,98619.28
2019-03-02T05:32:38.201Z,98617.98
2019-03-02T05:34:49.028Z,98612.48
2019-03-02T05:37:02.809Z,98614.61
2019-03-02T05:39:13.844Z,98613.66
2019-03-02T05:41:25.297Z,98611.30
2019-03-02T05:43:36.094Z,98613.42
2019-03-02T05:45:46.925Z,98612.25
2019-03-02T05:48:01.012Z,98609.66
2019-03-02T05:50:52.115Z,98616.16
2019-03-02T05:53:03.026Z,98608.88
2019-03-02T05:55:18.053Z,98611.87
2019-03-02T05:57:26.536Z,98617.03
2019-03-02T05:59:37.338Z,98617.34
2019-03-02T06:01:48.182Z,98621.09
2019-03-02T06:03:58.987Z,98625.31
2019-03-02T06:06:09.821Z,98618.02
2019-03-02T06:08:40.509Z,98617.48
2019-03-02T06:10:51.338Z,98617.48
2019-03-02T06:13:02.149Z,98616.64
2019-03-02T06:18:07.733Z,98611.94
2019-03-02T06:20:18.302Z,98615.89
2019-03-02T06:22:29.117Z,98618.52
2019-03-02T06:24:41.025Z,98615.09
2019-03-02T06:29:32.741Z,98613.23
2019-03-02T06:31:44.260Z,98617.56
2019-03-02T06:33:55.303Z,98619.23
2019-03-02T06:36:08.750Z,98617.48
2019-03-02T06:38:18.864Z,98613.95
2019-03-02T06:40:29.676Z,98610.14
2019-03-02T06:42:41.940Z,98610.52
2019-03-02T06:44:53.266Z,98604.19
2019-03-02T06:47:05.704Z,98601.98
2019-03-02T06:49:19.857Z,98601.98
2019-03-02T06:51:29.509Z,98603.61
2019-03-02T06:53:40.333Z,98601.81
2019-03-02T06:55:51.131Z,98597.08
2019-03-02T06:58:01.973Z,98598.82
2019-03-02T07:00:54.420Z,98601.81
2019-03-02T07:03:06.706Z,98594.11
2019-03-02T07:05:17.938Z,98591.19
2019-03-02T07:07:28.734Z,98593.35
2019-03-02T07:09:41.807Z,98596.94
2019-03-02T07:11:52.269Z,98599.52
2019-03-02T07:14:03.092Z,98607.34
2019-03-02T07:16:16.589Z,98606.44
2019-03-02T07:18:46.491Z,98599.59
2019-03-02T07:20:59.637Z,98601.84
2019-03-02T07:23:10.038Z,98598.50
2019-03-02T07:25:20.995Z,98598.04
2019-03-02T07:27:31.788Z,98600.67
2019-03-02T07:29:42.719Z,98604.12
2019-03-02T07:31:53.520Z,98601.20
2019-03-02T07:34:04.829Z,98601.00
2019-03-02T07:36:17.069Z,98596.52
2019-03-02T07:38:27.854Z,98601.10
2019-03-02T07:40:41.304Z,98592.70
2019-03-02T07:42:51.381Z,98594.38
2019-03-02T07:45:43.853Z,98588.45
2019-03-02T07:47:56.023Z,98589.73
2019-03-02T07:50:49.059Z,98596.45
2019-03-02T07:52:59.880Z,98589.34
2019-03-02T07:55:53.623Z,98587.28
2019-03-02T07:58:05.082Z,98589.80
2019-03-02T08:00:57.558Z,98595.17
2019-03-02T08:03:08.372Z,98596.92
2019-03-02T08:05:19.294Z,98591.22
2019-03-02T08:07:30.128Z,98590.84
2019-03-02T08:09:40.936Z,98591.02
2019-03-02T08:12:33.406Z,98589.23
2019-03-02T08:14:44.485Z,98592.91
2019-03-02T08:16:56.971Z,98590.39
2019-03-02T08:19:07.786Z,98586.77
2019-03-02T08:21:18.634Z,98582.77
2019-03-02T08:23:29.489Z,98586.27
2019-03-02T08:25:40.295Z,98583.61
2019-03-02T08:27:51.701Z,98582.19
2019-03-02T08:30:45.580Z,98574.94
2019-03-02T08:32:57.895Z,98574.30
2019-03-02T08:35:50.755Z,98577.19
2019-03-02T08:38:05.068Z,98577.85
2019-03-02T08:40:56.235Z,98569.18
2019-03-02T08:43:08.801Z,98570.14
2019-03-02T08:45:19.688Z,98566.21
2019-03-02T08:47:30.515Z,98564.21
2019-03-02T08:49:41.868Z,98560.63
2019-03-02T08:51:54.040Z,98561.63
2019-03-02T08:54:04.852Z,98558.95
2019-03-02T08:56:15.699Z,98557.99
2019-03-02T08:58:26.750Z,98558.75
2019-03-02T09:00:38.989Z,98556.81
2019-03-02T09:02:50.474Z,98556.26
2019-03-02T09:05:01.287Z,98564.64
2019-03-02T09:07:12.186Z,98563.92
2019-03-02T09:09:23.109Z,98557.56
2019-03-02T09:11:33.944Z,98559.40
2019-03-02T09:13:44.775Z,98560.48
2019-03-02T09:15:55.587Z,98556.97
2019-03-02T09:18:06.521Z,98557.44
2019-03-02T09:20:17.446Z,98554.80
2019-03-02T09:22:28.294Z,98554.73
2019-03-02T09:24:39.090Z,98554.59
2019-03-02T09:26:49.890Z,98555.38
2019-03-02T09:29:00.755Z,98552.80
2019-03-02T09:31:53.202Z,98552.30
2019-03-02T09:34:04.364Z,98546.30
2019-03-02T09:36:16.755Z,98553.06
2019-03-02T09:38:27.584Z,98541.22
2019-03-02T09:40:38.419Z,98546.48
2019-03-02T09:42:49.332Z,98554.80
2019-03-02T09:45:00.319Z,98543.05
2019-03-02T09:47:12.739Z,98541.75
2019-03-02T09:49:23.924Z,98545.27
2019-03-02T09:51:34.746Z,98541.30
2019-03-02T09:53:45.678Z,98544.20
2019-03-02T09:55:58.146Z,98537.57
2019-03-02T09:58:09.225Z,98541.53
2019-03-02T10:01:04.468Z,98542.63
2019-03-02T10:03:14.444Z,98542.30
2019-03-02T10:05:26.299Z,98539.70
2019-03-02T10:07:39.236Z,98531.09
2019-03-02T10:09:50.942Z,98538.20
2019-03-02T10:12:01.869Z,98536.14
2019-03-02T10:14:32.596Z,98536.42
2019-03-02T10:16:43.405Z,98544.82
2019-03-02T10:18:54.221Z,98537.20
2019-03-02T10:21:05.167Z,98539.94
2019-03-02T10:23:15.963Z,98550.45
2019-03-02T10:25:32.023Z,98544.75
2019-03-02T10:27:39.587Z,98546.13
2019-03-02T10:29:50.404Z,98541.61
2019-03-02T10:32:01.247Z,98542.08
2019-03-02T10:34:12.101Z,98549.31
2019-03-02T10:36:25.776Z,98545.64
2019-03-02T10:38:35.679Z,98539.41
2019-03-02T10:40:46.569Z,98541.08
2019-03-02T10:42:57.377Z,98547.33
2019-03-02T10:45:49.845Z,98541.87
2019-03-02T10:48:00.650Z,98549.87
2019-03-02T10:50:31.352Z,98553.59
2019-03-02T10:52:42.180Z,98554.42
2019-03-02T10:54:53.010Z,98552.07
2019-03-02T10:57:03.863Z,98555.87
2019-03-02T10:59:15.529Z,98550.53
2019-03-02T11:01:27.543Z,98549.92
2019-03-02T11:03:38.358Z,98550.70
2019-03-02T11:06:09.042Z,98538.88
2019-03-02T11:08:39.947Z,98537.25
2019-03-02T11:11:10.630Z,98532.59
2019-03-02T11:13:51.844Z,98527.81
2019-03-02T11:16:22.750Z,98530.56
2019-03-02T11:18:53.432Z,98526.52
2019-03-02T11:21:24.163Z,98531.00
2019-03-02T11:23:57.534Z,98525.04
2019-03-02T11:26:27.418Z,98527.02
2019-03-02T11:28:58.167Z,98525.94
2019-03-02T11:31:28.846Z,98519.54
2019-03-02T11:33:59.854Z,98521.12
2019-03-02T11:36:30.601Z,98517.69
2019-03-02T11:39:01.488Z,98518.00
2019-03-02T11:44:04.627Z,98509.07
2019-03-02T11:46:35.320Z,98517.94
2019-03-02T11:51:27.150Z,98518.92
2019-03-02T11:56:26.659Z,98518.82
2019-03-02T11:58:52.089Z,98516.22
2019-03-02T12:01:22.852Z,98506.10
2019-03-02T12:03:53.557Z,98510.05
2019-03-02T12:06:24.345Z,98504.90
2019-03-02T12:08:57.929Z,98507.47
2019-03-02T12:13:49.980Z,98500.03
2019-03-02T12:16:22.021Z,98499.66
2019-03-02T12:18:54.173Z,98500.56
2019-03-02T12:21:25.990Z,98494.03
2019-03-02T12:23:56.677Z,98490.84
2019-03-02T12:26:27.372Z,98493.39
2019-03-02T12:28:58.042Z,98486.48
2019-03-02T12:31:31.908Z,98489.42
2019-03-02T12:34:01.343Z,98489.80
2019-03-02T12:36:32.046Z,98491.75
2019-03-02T12:39:02.737Z,98489.97
2019-03-02T12:41:33.484Z,98482.88
2019-03-02T12:44:04.174Z,98479.27
2019-03-02T12:49:15.482Z,98477.17
2019-03-02T12:51:46.165Z,98470.12
2019-03-02T12:54:16.834Z,98472.88
2019-03-02T12:56:47.535Z,98473.12
2019-03-02T13:06:18.414Z,98468.56
2019-03-02T13:08:49.230Z,98462.34
2019-03-02T13:13:52.763Z,98461.20
2019-03-02T13:16:25.065Z,98458.34
2019-03-02T13:18:55.794Z,98459.55
2019-03-02T13:21:26.478Z,98460.01
2019-03-02T13:26:15.547Z,98449.44
2019-03-02T13:28:46.439Z,98449.06
2019-03-02T13:33:49.550Z,98446.14
2019-03-02T13:36:20.216Z,98438.75
2019-03-02T13:38:50.950Z,98440.49
2019-03-02T13:41:30.078Z,98433.09
2019-03-02T13:43:54.377Z,98434.86
2019-03-02T13:46:25.077Z,98433.98
2019-03-02T13:48:58.289Z,98435.94
2019-03-02T13:51:30.014Z,98437.23
2019-03-02T13:56:33.446Z,98435.67
2019-03-02T14:01:36.526Z,98433.97
2019-03-02T14:08:57.991Z,98425.53
2019-03-02T14:11:28.699Z,98417.48
2019-03-02T14:13:59.372Z,98413.84
2019-03-02T14:19:05.866Z,98411.64
2019-03-02T14:21:38.762Z,98404.38
2019-03-02T14:24:10.225Z,98404.95
2019-03-02T14:31:21.141Z,98403.22
2019-03-02T14:33:51.838Z,98400.80
2019-03-02T14:36:22.737Z,98401.45
2019-03-02T14:43:35.863Z,98397.70
2019-03-02T14:46:07.202Z,98405.72
2019-03-02T14:53:15.476Z,98396.72
2019-03-02T15:00:37.037Z,98397.34
2019-03-02T15:03:07.736Z,98396.51
2019-03-02T15:05:38.536Z,98398.81
2019-03-02T15:08:09.276Z,98396.58
2019-03-02T15:10:39.968Z,98395.28
2019-03-02T15:13:10.702Z,98394.34
2019-03-02T15:15:41.485Z,98397.33
2019-03-02T15:20:44.576Z,98387.94
2019-03-02T15:25:47.642Z,98401.59
2019-03-02T15:28:18.340Z,98393.67
2019-03-02T15:30:49.049Z,98397.75
2019-03-02T15:33:19.720Z,98400.63
2019-03-02T15:35:50.432Z,98398.31
2019-03-02T15:38:21.129Z,98402.28
2019-03-02T15:40:51.940Z,98402.02
2019-03-02T15:43:22.756Z,98406.17
2019-03-02T15:45:55.409Z,98407.37
2019-03-02T15:50:58.460Z,98401.54
2019-03-02T15:58:24.710Z,98395.89
2019-03-02T16:01:17.218Z,98395.54
2019-03-02T16:03:47.923Z,98395.14
2019-03-02T16:06:19.640Z,98401.00
2019-03-02T16:13:49.572Z,98391.53
2019-03-02T16:16:14.890Z,98393.41
2019-03-02T16:18:49.186Z,98397.66
2019-03-02T16:21:19.586Z,98398.38
2019-03-02T16:23:50.942Z,98394.86
2019-03-02T16:26:21.666Z,98398.75
2019-03-02T16:28:52.378Z,98391.13
2019-03-02T16:33:55.441Z,98394.00
2019-03-02T16:36:26.314Z,98391.19
2019-03-02T16:38:57.024Z,98384.16
2019-03-02T16:41:31.163Z,98382.09
2019-03-02T16:44:03.218Z,98384.80
2019-03-02T16:46:35.101Z,98389.62
2019-03-02T16:49:06.147Z,98380.41
2019-03-02T16:51:36.995Z,98384.87
2019-03-02T16:54:07.678Z,98391.63
2019-03-02T16:59:10.844Z,98386.53
2019-03-02T17:01:41.518Z,98387.91
2019-03-02T17:06:30.856Z,98387.37
2019-03-02T17:09:01.559Z,98389.20
2019-03-02T17:11:35.481Z,98388.67
2019-03-02T17:14:09.221Z,98392.20
2019-03-02T17:19:10.099Z,98393.17
2019-03-02T17:21:40.903Z,98389.75
2019-03-02T17:24:11.609Z,98393.91
2019-03-02T17:29:14.756Z,98398.05
2019-03-02T17:31:45.453Z,98401.05
2019-03-02T17:36:41.713Z,98398.52
2019-03-02T17:39:11.205Z,98399.52
2019-03-02T17:46:47.113Z,98407.87
2019-03-02T17:49:28.210Z,98417.59
2019-03-02T17:54:14.074Z,98412.50
2019-03-02T17:59:04.183Z,98415.92
2019-03-02T18:01:36.625Z,98428.52
2019-03-02T18:04:07.320Z,98432.41
2019-03-02T18:06:38.129Z,98430.28
2019-03-02T18:09:08.835Z,98441.22
2019-03-02T18:11:39.574Z,98439.99
2019-03-02T18:14:10.265Z,98446.41
2019-03-02T18:16:41.398Z,98443.42
2019-03-02T18:18:53.674Z,98447.88
2019-03-02T18:21:04.516Z,98445.45
2019-03-02T18:23:18.951Z,98452.67
2019-03-02T18:25:28.326Z,98445.28
2019-03-02T18:27:39.151Z,98444.88
2019-03-02T18:29:50.172Z,98453.77
2019-03-02T18:32:02.271Z,98454.33
2019-03-02T18:36:49.779Z,98454.03
2019-03-02T18:39:00.973Z,98459.52
2019-03-02T18:41:12.329Z,98464.71
2019-03-02T18:43:24.351Z,98462.81
2019-03-02T18:45:35.868Z,98470.59
2019-03-02T18:47:47.948Z,98475.95
2019-03-02T18:50:18.627Z,98472.05
2019-03-02T18:52:49.336Z,98484.45
2019-03-02T18:55:00.284Z,98486.52
2019-03-02T18:57:13.198Z,98490.41
2019-03-02T18:59:23.911Z,98495.77
2019-03-02T19:02:16.388Z,98495.36
2019-03-02T19:05:09.756Z,98497.69
2019-03-02T19:07:21.500Z,98497.59
2019-03-02T19:09:33.335Z,98505.28
2019-03-02T19:11:45.049Z,98502.83
2019-03-02T19:13:55.853Z,98497.89
2019-03-02T19:16:06.662Z,98502.62
2019-03-02T19:18:17.511Z,98500.71
2019-03-02T19:20:28.339Z,98506.37
2019-03-02T19:22:39.218Z,98508.34
2019-03-02T19:24:50.157Z,98506.37
2019-03-02T19:27:01.000Z,98514.83
2019-03-02T19:29:11.836Z,98514.46
2019-03-02T19:31:22.780Z,98520.42
2019-03-02T19:33:33.711Z,98517.00
2019-03-02T19:35:44.540Z,98520.06
2019-03-02T19:37:55.357Z,98523.48
2019-03-02T19:40:47.806Z,98521.05
2019-03-02T19:42:58.748Z,98518.39
2019-03-02T19:45:51.234Z,98520.98
2019-03-02T19:48:02.071Z,98514.87
2019-03-02T19:50:32.812Z,98512.69
2019-03-02T19:52:43.751Z,98514.72
2019-03-02T19:54:54.595Z,98519.20
2019-03-02T19:57:05.467Z,98517.22
2019-03-02T19:59:16.301Z,98518.61
2019-03-02T20:01:27.082Z,98515.55
2019-03-02T20:03:38.213Z,98512.53
2019-03-02T20:05:49.022Z,98509.26
2019-03-02T20:07:59.851Z,98513.30
2019-03-02T20:10:52.329Z,98513.83
2019-03-02T20:13:03.152Z,98518.27
2019-03-02T20:15:55.675Z,98517.13
2019-03-02T20:18:06.494Z,98522.07
2019-03-02T20:20:58.954Z,98520.16
2019-03-02T20:23:09.806Z,98523.13
2019-03-02T20:25:20.648Z,98511.02
2019-03-02T20:27:31.486Z,98513.14
2019-03-02T20:29:42.278Z,98516.36
2019-03-02T20:31:53.132Z,98516.83
2019-03-02T20:34:04.048Z,98515.61
2019-03-02T20:36:14.894Z,98516.23
2019-03-02T20:38:25.827Z,98513.95
2019-03-02T20:40:36.658Z,98514.19
2019-03-02T20:42:47.491Z,98523.67
2019-03-02T20:44:58.320Z,98524.88
2019-03-02T20:47:09.149Z,98526.80
2019-03-02T20:49:19.957Z,98533.45
2019-03-02T20:51:30.768Z,98531.38
2019-03-02T20:53:41.755Z,98536.67
2019-03-02T20:55:52.553Z,98535.16
2019-03-02T20:58:03.516Z,98532.20
2019-03-02T21:00:34.988Z,98532.88
2019-03-02T21:02:45.833Z,98527.54
2019-03-02T21:04:56.630Z,98530.91
2019-03-02T21:07:07.459Z,98532.88
2019-03-02T21:09:18.385Z,98536.77
2019-03-02T21:11:29.212Z,98530.47
2019-03-02T21:13:40.144Z,98533.34
2019-03-02T21:15:50.970Z,98537.27
2019-03-02T21:18:02.183Z,98532.23
2019-03-02T21:20:54.635Z,98538.48
2019-03-02T21:23:05.673Z,98536.83
2019-03-02T21:25:16.702Z,98541.38
2019-03-02T21:27:27.542Z,98539.94
2019-03-02T21:29:38.354Z,98538.27
2019-03-02T21:31:49.181Z,98537.25
2019-03-02T21:34:00.026Z,98537.44
2019-03-02T21:36:10.946Z,98532.86
2019-03-02T21:38:21.777Z,98531.78
2019-03-02T21:41:14.229Z,98536.96
2019-03-02T21:43:25.089Z,98541.46
2019-03-02T21:45:36.009Z,98538.81
2019-03-02T21:47:47.161Z,98544.61
2019-03-02T21:49:57.998Z,98541.46
2019-03-02T21:55:01.083Z,98540.16
2019-03-02T21:57:12.042Z,98544.89
2019-03-02T21:59:22.885Z,98547.57
2019-03-02T22:01:33.736Z,98547.94
2019-03-02T22:03:44.596Z,98552.84
2019-03-02T22:05:55.399Z,98546.98
2019-03-02T22:08:06.228Z,98549.02
2019-03-02T22:10:58.696Z,98553.28
2019-03-02T22:13:09.525Z,98554.34
2019-03-02T22:15:20.349Z,98552.84
2019-03-02T22:17:31.149Z,98555.72
2019-03-02T22:19:41.977Z,98560.63
2019-03-02T22:21:52.792Z,98568.31
2019-03-02T22:24:03.703Z,98567.11
2019-03-02T22:26:36.288Z,98570.30
2019-03-02T22:28:47.131Z,98577.16
2019-03-02T22:30:57.957Z,98573.79
2019-03-02T22:33:08.767Z,98569.44
2019-03-02T22:35:19.701Z,98573.73
2019-03-02T22:37:30.502Z,98581.02
2019-03-02T22:39:41.340Z,98577.83
2019-03-02T22:41:52.182Z,98573.09
2019-03-02T22:44:03.101Z,98570.74
2019-03-02T22:46:13.923Z,98573.19
2019-03-02T22:48:24.724Z,98571.12
2019-03-02T22:50:35.565Z,98570.23
2019-03-02T22:52:46.515Z,98558.56
2019-03-02T22:54:57.431Z,98560.97
2019-03-02T22:57:08.272Z,98560.00
2019-03-02T22:59:19.083Z,98558.56
2019-03-02T23:02:09.672Z,98554.34
2019-03-02T23:04:20.451Z,98557.77
2019-03-02T23:06:31.266Z,98550.92
2019-03-02T23:08:42.130Z,98560.45
2019-03-02T23:10:52.933Z,98553.73
2019-03-02T23:13:03.738Z,98553.05
2019-03-02T23:15:56.193Z,98552.45
2019-03-02T23:18:07.117Z,98551.62
2019-03-02T23:20:18.054Z,98555.56
2019-03-02T23:22:28.874Z,98552.28
2019-03-02T23:24:39.671Z,98546.64
2019-03-02T23:26:50.513Z,98548.94
2019-03-02T23:29:01.340Z,98555.56
2019-03-02T23:31:12.139Z,98551.98
2019-03-02T23:33:23.015Z,98551.30
2019-03-02T23:35:33.941Z,98553.06
2019-03-02T23:37:44.773Z,98548.25
2019-03-02T23:39:55.579Z,98549.08
2019-03-02T23:42:06.451Z,98547.33
2019-03-02T23:44:17.249Z,98552.52
2019-03-02T23:46:28.077Z,98549.40
2019-03-02T23:48:38.887Z,98546.81
2019-03-02T23:50:49.686Z,98545.83
2019-03-02T23:53:00.522Z,98553.89
2019-03-02T23:55:52.980Z,98550.17
2019-03-02T23:58:45.443Z,98555.27
